Terminal Aerodrome Forecast
Issued by NWS

Home | Current Version | Previous Version | Text Only | Print | Product List | Glossary On
Versions: 1 2 3 4 5 6 7 8 9 10 11 12 13 14 15 16 17 18
399
FTUS46 KSEW 162330
TAFBFI
TAF
KBFI 162330Z 1700/1724 19010G18KT P6SM FEW040 BKN120 BKN250
     FM170300 21010G18KT P6SM SCT040 BKN100 OVC200
     FM170900 20012G20KT P6SM VCSH BKN030 OVC045
     FM171200 20013G22KT P6SM VCSH BKN025 OVC030
     FM171600 23014G24KT P6SM -RA OVC025
     FM172100 20008KT P6SM -SHRA BKN035=

USA.gov is the U.S. government's official web portal to all federal, state and local government web resources and services.